createdAt,value
2023-11-30T00:00:03.703Z,88.5
2023-11-30T00:03:03.485Z,88.5
2023-11-30T00:06:03.407Z,88.5
2023-11-30T00:09:03.347Z,88.5
2023-11-30T00:12:03.372Z,88.5
2023-11-30T00:15:03.577Z,88.5
2023-11-30T00:18:03.654Z,88.5
2023-11-30T00:21:03.355Z,88.5
2023-11-30T00:24:03.175Z,88.5
2023-11-30T00:27:03.559Z,88.5
2023-11-30T00:30:03.557Z,88.5
2023-11-30T00:33:03.416Z,88.5
2023-11-30T00:36:03.521Z,88.5
2023-11-30T00:39:03.409Z,88.5
2023-11-30T00:42:03.553Z,88.5
2023-11-30T00:45:03.566Z,88.5
2023-11-30T00:48:03.585Z,88.5
2023-11-30T00:51:03.364Z,88.9
2023-11-30T00:54:03.439Z,88.9
2023-11-30T00:57:03.426Z,88.9
2023-11-30T01:00:03.776Z,88.9
2023-11-30T01:03:03.270Z,88.9
2023-11-30T01:06:03.353Z,88.9
2023-11-30T01:09:03.454Z,88.9
2023-11-30T01:12:03.365Z,88.9
2023-11-30T01:15:03.847Z,88.9
2023-11-30T01:18:03.761Z,88.9
2023-11-30T01:21:03.401Z,88.9
2023-11-30T01:24:03.488Z,88.9
2023-11-30T01:27:03.235Z,88.9
2023-11-30T01:30:03.817Z,88.9
2023-11-30T01:33:03.652Z,88.9
2023-11-30T01:36:03.486Z,88.9
2023-11-30T01:39:03.369Z,88.9
2023-11-30T01:42:08.017Z,88.9
2023-11-30T01:45:03.437Z,88.9
2023-11-30T01:48:03.583Z,88.9
2023-11-30T01:51:03.359Z,87.3
2023-11-30T01:54:03.516Z,87.3
2023-11-30T01:57:03.510Z,87.3
2023-11-30T02:00:03.440Z,87.3
2023-11-30T02:03:03.327Z,87.3
2023-11-30T02:06:03.483Z,87.3
2023-11-30T02:09:03.369Z,87.3
2023-11-30T02:12:03.371Z,87.3
2023-11-30T02:15:03.641Z,87.3
2023-11-30T02:18:03.905Z,87.3
2023-11-30T02:21:03.359Z,87.3
2023-11-30T02:24:03.418Z,87.3
2023-11-30T02:27:03.394Z,87.3
2023-11-30T02:30:03.690Z,87.3
2023-11-30T02:33:03.593Z,87.3
2023-11-30T02:36:03.430Z,87.3
2023-11-30T02:39:03.383Z,87.3
2023-11-30T02:42:03.350Z,86.7
2023-11-30T02:45:03.516Z,86.7
2023-11-30T02:48:03.639Z,86.7
2023-11-30T02:51:03.332Z,86.7
2023-11-30T02:54:03.496Z,86.7
2023-11-30T02:57:03.633Z,86.7
2023-11-30T03:00:03.972Z,86.7
2023-11-30T03:03:03.400Z,86.7
2023-11-30T03:06:03.375Z,86.7
2023-11-30T03:09:03.462Z,86.7
2023-11-30T03:12:03.584Z,86.7
2023-11-30T03:15:03.569Z,86.7
2023-11-30T03:18:03.577Z,86.7
2023-11-30T03:21:03.341Z,86.7
2023-11-30T03:24:03.335Z,86.7
2023-11-30T03:27:03.429Z,86.7
2023-11-30T03:30:03.560Z,86.7
2023-11-30T03:33:03.554Z,86.7
2023-11-30T03:36:03.632Z,86.7
2023-11-30T03:39:03.285Z,86.2
2023-11-30T03:42:03.370Z,86.2
2023-11-30T03:45:03.302Z,86.2
2023-11-30T03:48:03.477Z,86.5
2023-11-30T03:51:03.573Z,86.5
2023-11-30T03:54:03.524Z,86.5
2023-11-30T03:57:03.433Z,86.5
2023-11-30T04:00:03.693Z,86.5
2023-11-30T04:03:03.296Z,86.5
2023-11-30T04:06:03.386Z,86.5
2023-11-30T04:09:03.292Z,86.5
2023-11-30T04:12:03.439Z,86.5
2023-11-30T04:15:03.385Z,86.5
2023-11-30T04:18:03.651Z,86.5
2023-11-30T04:21:03.469Z,86.5
2023-11-30T04:24:03.311Z,86.5
2023-11-30T04:27:03.502Z,86.5
2023-11-30T04:30:03.644Z,86.5
2023-11-30T04:33:03.413Z,85.8
2023-11-30T04:36:03.745Z,85.8
2023-11-30T04:39:03.639Z,85.8
2023-11-30T04:42:03.341Z,85.8
2023-11-30T04:45:03.426Z,85.8
2023-11-30T04:48:03.466Z,85.8
2023-11-30T04:51:03.413Z,85.8
2023-11-30T04:54:03.404Z,85.8
2023-11-30T04:57:03.516Z,85.8
2023-11-30T05:00:03.613Z,85.8
2023-11-30T05:03:04.177Z,85.8
2023-11-30T05:06:03.539Z,85.8
2023-11-30T05:09:03.309Z,85.8
2023-11-30T05:12:03.528Z,85.8
2023-11-30T05:15:03.480Z,85.8
2023-11-30T05:18:03.597Z,85.8
2023-11-30T05:21:03.324Z,85.8
2023-11-30T05:24:03.487Z,85.8
2023-11-30T05:27:03.290Z,87.7
2023-11-30T05:30:03.634Z,87.7
2023-11-30T05:33:03.870Z,87.7
2023-11-30T05:36:03.434Z,87.7
2023-11-30T05:39:03.488Z,87.7
2023-11-30T05:42:03.602Z,87.7
2023-11-30T05:45:03.530Z,87.7
2023-11-30T05:48:03.672Z,87.7
2023-11-30T05:51:03.242Z,89.6
2023-11-30T05:54:03.937Z,89.6
2023-11-30T05:57:04.123Z,89.6
2023-11-30T06:00:04.021Z,89.6
2023-11-30T06:03:05.524Z,89.6
2023-11-30T06:06:03.389Z,89.6
2023-11-30T06:09:03.380Z,89.6
2023-11-30T06:12:03.448Z,89.6
2023-11-30T06:15:03.433Z,89.6
2023-11-30T06:18:03.359Z,89.6
2023-11-30T06:21:03.419Z,89.6
2023-11-30T06:24:03.390Z,90
2023-11-30T06:27:03.336Z,90
2023-11-30T06:30:03.373Z,90
2023-11-30T06:33:03.711Z,90
2023-11-30T06:36:03.474Z,90
2023-11-30T06:39:03.680Z,90
2023-11-30T06:42:03.514Z,90
2023-11-30T06:45:03.647Z,90
2023-11-30T06:48:04.178Z,90
2023-11-30T06:51:03.578Z,90
2023-11-30T06:54:03.499Z,90
2023-11-30T06:57:03.617Z,90
2023-11-30T07:00:04.067Z,90
2023-11-30T07:03:04.088Z,90
2023-11-30T07:06:03.363Z,90
2023-11-30T07:09:03.263Z,90
2023-11-30T07:12:03.727Z,90
2023-11-30T07:15:03.881Z,90
2023-11-30T07:18:03.763Z,90
2023-11-30T07:21:03.474Z,90
2023-11-30T07:24:03.518Z,90
2023-11-30T07:27:03.425Z,90
2023-11-30T07:30:03.583Z,89.9
2023-11-30T07:33:03.523Z,89.9
2023-11-30T07:36:03.314Z,89.9
2023-11-30T07:39:03.440Z,89.9
2023-11-30T07:42:06.916Z,89.9
2023-11-30T07:45:04.238Z,89.9
2023-11-30T07:48:03.545Z,89.9
2023-11-30T07:51:03.699Z,89.9
2023-11-30T07:54:03.603Z,89.9
2023-11-30T07:57:03.309Z,89.9
2023-11-30T08:00:03.635Z,89.9
2023-11-30T08:03:03.501Z,89.9
2023-11-30T08:06:03.332Z,89.9
2023-11-30T08:09:03.374Z,89.9
2023-11-30T08:12:03.600Z,89.9
2023-11-30T08:15:03.755Z,89.9
2023-11-30T08:18:03.483Z,89.9
2023-11-30T08:21:03.390Z,90
2023-11-30T08:24:03.449Z,90
2023-11-30T08:27:03.688Z,90
2023-11-30T08:30:03.549Z,90
2023-11-30T08:33:08.957Z,90
2023-11-30T08:36:03.488Z,90
2023-11-30T08:39:03.434Z,90
2023-11-30T08:42:03.661Z,90
2023-11-30T08:45:03.449Z,90
2023-11-30T08:48:03.678Z,90
2023-11-30T08:51:03.399Z,90
2023-11-30T08:54:03.368Z,90.1
2023-11-30T08:57:03.439Z,90.1
2023-11-30T09:00:03.500Z,90.1
2023-11-30T09:03:03.579Z,90.1
2023-11-30T09:06:03.210Z,90.1
2023-11-30T09:09:03.542Z,90.1
2023-11-30T09:12:03.477Z,90.1
2023-11-30T09:15:03.511Z,90
2023-11-30T09:18:03.393Z,90
2023-11-30T09:21:03.289Z,90
2023-11-30T09:24:03.313Z,90
2023-11-30T09:27:03.416Z,90
2023-11-30T09:30:03.450Z,90
2023-11-30T09:33:03.611Z,90
2023-11-30T09:36:03.374Z,90
2023-11-30T09:39:03.299Z,90
2023-11-30T09:42:03.342Z,90
2023-11-30T09:45:03.234Z,90
2023-11-30T09:48:03.512Z,90
2023-11-30T09:51:03.474Z,90
2023-11-30T09:54:03.288Z,90
2023-11-30T09:57:03.382Z,90
2023-11-30T10:00:03.307Z,90.1
2023-11-30T10:03:03.477Z,90.1
2023-11-30T10:06:03.217Z,90.1
2023-11-30T10:09:03.447Z,90.2
2023-11-30T10:12:03.289Z,90.2
2023-11-30T10:15:03.448Z,90.2
2023-11-30T10:18:03.803Z,90.2
2023-11-30T10:21:03.388Z,90.2
2023-11-30T10:24:03.302Z,90
2023-11-30T10:27:03.334Z,90
2023-11-30T10:30:03.556Z,90
2023-11-30T10:33:03.471Z,90
2023-11-30T10:36:03.345Z,90
2023-11-30T10:39:03.340Z,90
2023-11-30T10:42:03.299Z,90
2023-11-30T10:45:03.494Z,90
2023-11-30T10:48:03.498Z,90
2023-11-30T10:51:03.431Z,90
2023-11-30T10:54:03.322Z,90
2023-11-30T10:57:03.258Z,90
2023-11-30T11:00:03.226Z,89.2
2023-11-30T11:03:03.363Z,89.2
2023-11-30T11:06:03.397Z,89.2
2023-11-30T11:09:03.364Z,89.2
2023-11-30T11:12:03.271Z,89.2
2023-11-30T11:15:03.236Z,89.2
2023-11-30T11:18:03.358Z,89.2
2023-11-30T11:21:03.243Z,89.2
2023-11-30T11:24:03.428Z,87.5
2023-11-30T11:27:03.408Z,87.5
2023-11-30T11:30:03.370Z,87.5
2023-11-30T11:33:03.500Z,87.5
2023-11-30T11:36:03.139Z,87.5
2023-11-30T11:39:03.268Z,87.5
2023-11-30T11:42:03.388Z,87.5
2023-11-30T11:45:03.516Z,87.5
2023-11-30T11:48:03.570Z,87.5
2023-11-30T11:51:03.387Z,87.5
2023-11-30T11:54:03.337Z,87.5
2023-11-30T11:57:03.339Z,86.5
2023-11-30T12:00:03.621Z,86.5
2023-11-30T12:03:03.359Z,86.5
2023-11-30T12:06:03.326Z,86.5
2023-11-30T12:09:03.222Z,86.5
2023-11-30T12:12:03.377Z,86.5
2023-11-30T12:15:03.414Z,86.5
2023-11-30T12:18:03.784Z,86.5
2023-11-30T12:21:03.660Z,86.5
2023-11-30T12:24:03.326Z,86.5
2023-11-30T12:27:03.458Z,86.5
2023-11-30T12:30:03.568Z,86.5
2023-11-30T12:33:03.336Z,86.5
2023-11-30T12:36:03.266Z,86.5
2023-11-30T12:39:03.377Z,86.5
2023-11-30T12:42:07.500Z,86.5
2023-11-30T12:45:03.525Z,86.5
2023-11-30T12:48:03.307Z,86
2023-11-30T12:51:03.389Z,86
2023-11-30T12:54:03.401Z,86
2023-11-30T12:57:03.372Z,85.9
2023-11-30T13:00:03.668Z,85.9
2023-11-30T13:03:03.264Z,85.9
2023-11-30T13:06:03.340Z,85.9
2023-11-30T13:09:03.532Z,85.9
2023-11-30T13:12:03.187Z,85.9
2023-11-30T13:15:03.373Z,85.9
2023-11-30T13:18:03.576Z,85.9
2023-11-30T13:21:03.267Z,85.9
2023-11-30T13:24:03.483Z,85.9
2023-11-30T13:27:03.329Z,85.9
2023-11-30T13:30:03.780Z,85.9
2023-11-30T13:33:03.477Z,85.9
2023-11-30T13:36:03.609Z,85.9
2023-11-30T13:39:03.509Z,85.9
2023-11-30T13:42:03.390Z,86.6
2023-11-30T13:45:03.398Z,86.6
2023-11-30T13:48:03.828Z,86.6
2023-11-30T13:51:07.088Z,86.6
2023-11-30T13:54:03.360Z,86.6
2023-11-30T13:57:03.284Z,86.6
2023-11-30T14:00:03.509Z,86.9
2023-11-30T14:03:03.571Z,86.9
2023-11-30T14:06:03.391Z,86.9
2023-11-30T14:09:03.567Z,86.9
2023-11-30T14:12:03.330Z,86.9
2023-11-30T14:15:03.724Z,86.9
2023-11-30T14:18:03.356Z,86.9
2023-11-30T14:21:03.253Z,86.9
2023-11-30T14:24:03.332Z,86.9
2023-11-30T14:27:03.457Z,86.9
2023-11-30T14:30:03.614Z,86.9
2023-11-30T14:33:03.670Z,86.9
2023-11-30T14:36:03.249Z,86.9
2023-11-30T14:39:03.364Z,86.5
2023-11-30T14:42:03.263Z,86.5
2023-11-30T14:45:03.595Z,86.5
2023-11-30T14:48:03.404Z,86.5
2023-11-30T14:51:03.247Z,86.5
2023-11-30T14:54:03.199Z,86.5
2023-11-30T14:57:08.129Z,86.5
2023-11-30T15:00:03.374Z,86.5
2023-11-30T15:03:03.412Z,86.5
2023-11-30T15:06:03.962Z,86.5
2023-11-30T15:09:03.676Z,86.5
2023-11-30T15:12:03.434Z,86.5
2023-11-30T15:15:03.483Z,86.5
2023-11-30T15:18:03.480Z,86.5
2023-11-30T15:21:03.250Z,86.5
2023-11-30T15:24:03.483Z,86.5
2023-11-30T15:27:03.305Z,86.5
2023-11-30T15:30:03.470Z,86.8
2023-11-30T15:33:03.224Z,86.8
2023-11-30T15:36:03.294Z,86.8
2023-11-30T15:39:03.133Z,86.8
2023-11-30T15:42:03.086Z,86.8
2023-11-30T15:45:03.244Z,86.8
2023-11-30T15:48:03.260Z,86.8
2023-11-30T15:51:03.114Z,86.8
2023-11-30T15:54:02.977Z,86.8
2023-11-30T15:57:03.055Z,86.8
2023-11-30T16:00:03.124Z,86.8
2023-11-30T16:03:03.253Z,86.8
2023-11-30T16:06:03.074Z,86.8
2023-11-30T16:09:03.318Z,86.8
2023-11-30T16:12:03.125Z,86.8
2023-11-30T16:15:03.098Z,86.8
2023-11-30T16:18:03.168Z,86.8
2023-11-30T16:21:03.116Z,86.8
2023-11-30T16:24:03.185Z,86.5
2023-11-30T16:27:03.938Z,86.5
2023-11-30T16:30:03.488Z,86.5
2023-11-30T16:33:03.268Z,86.2
2023-11-30T16:36:03.133Z,86.2
2023-11-30T16:39:03.120Z,86.2
2023-11-30T16:42:03.127Z,86.2
2023-11-30T16:45:03.178Z,86.2
2023-11-30T16:48:03.335Z,86.2
2023-11-30T16:51:03.123Z,86.4
2023-11-30T16:54:03.149Z,86.4
2023-11-30T16:57:03.085Z,86.4
2023-11-30T17:00:03.608Z,86.4
2023-11-30T17:03:03.362Z,86.4
2023-11-30T17:06:03.087Z,86.4
2023-11-30T17:09:03.095Z,86.4
2023-11-30T17:12:03.107Z,86.4
2023-11-30T17:15:03.438Z,86.4
2023-11-30T17:18:03.136Z,86.4
2023-11-30T17:21:03.124Z,86.4
2023-11-30T17:24:03.005Z,86.4
2023-11-30T17:27:03.084Z,86.4
2023-11-30T17:30:03.263Z,86.4
2023-11-30T17:33:03.574Z,86.4
2023-11-30T17:36:03.094Z,86.4
2023-11-30T17:39:03.060Z,86.4
2023-11-30T17:42:03.130Z,86.4
2023-11-30T17:45:03.094Z,86.4
2023-11-30T17:48:03.202Z,86.4
2023-11-30T17:51:03.147Z,86.4
2023-11-30T17:54:03.061Z,86.4
2023-11-30T17:57:03.095Z,86.4
2023-11-30T18:00:03.148Z,86.4
2023-11-30T18:03:03.138Z,86.4
2023-11-30T18:06:03.141Z,86.4
2023-11-30T18:09:03.102Z,86.4
2023-11-30T18:12:03.093Z,86
2023-11-30T18:15:03.457Z,86
2023-11-30T18:18:03.251Z,85.8
2023-11-30T18:21:03.151Z,85.8
2023-11-30T18:24:03.085Z,85.8
2023-11-30T18:27:03.089Z,85.8
2023-11-30T18:30:03.166Z,85.8
2023-11-30T18:33:03.136Z,85.8
2023-11-30T18:36:03.047Z,85.8
2023-11-30T18:39:03.165Z,85.8
2023-11-30T18:42:03.120Z,85.8
2023-11-30T18:45:03.049Z,85.8
2023-11-30T18:48:03.227Z,85.8
2023-11-30T18:51:03.123Z,86.3
2023-11-30T18:54:03.103Z,86.3
2023-11-30T18:57:03.139Z,86.3
2023-11-30T19:00:03.237Z,86.3
2023-11-30T19:03:03.144Z,86.3
2023-11-30T19:06:03.152Z,86.3
2023-11-30T19:09:03.111Z,86.3
2023-11-30T19:12:03.017Z,86.3
2023-11-30T19:15:03.110Z,85.9
2023-11-30T19:18:03.188Z,85.9
2023-11-30T19:21:03.097Z,85.9
2023-11-30T19:24:03.086Z,85.9
2023-11-30T19:27:03.149Z,85.9
2023-11-30T19:30:03.319Z,85.9
2023-11-30T19:33:03.394Z,88.6
2023-11-30T19:36:03.018Z,88.6
2023-11-30T19:39:03.098Z,88.6
2023-11-30T19:42:03.062Z,88.6
2023-11-30T19:45:03.159Z,88.6
2023-11-30T19:48:03.293Z,88.6
2023-11-30T19:51:03.113Z,88.6
2023-11-30T19:54:03.163Z,88.6
2023-11-30T19:57:03.050Z,88.6
2023-11-30T20:00:03.196Z,88.6
2023-11-30T20:03:03.198Z,88.6
2023-11-30T20:06:03.037Z,85.9
2023-11-30T20:09:03.042Z,85.9
2023-11-30T20:12:03.138Z,85.9
2023-11-30T20:15:02.989Z,85.9
2023-11-30T20:18:03.382Z,85.9
2023-11-30T20:21:03.300Z,85.9
2023-11-30T20:24:03.044Z,85.9
2023-11-30T20:27:03.000Z,85.9
2023-11-30T20:30:03.092Z,85.7
2023-11-30T20:33:03.129Z,85.7
2023-11-30T20:36:03.129Z,85.7
2023-11-30T20:39:03.071Z,85.7
2023-11-30T20:42:03.037Z,85.7
2023-11-30T20:45:03.118Z,85.7
2023-11-30T20:48:03.145Z,85.7
2023-11-30T20:51:03.256Z,85.7
2023-11-30T20:54:03.366Z,85.7
2023-11-30T20:57:03.183Z,85.7
2023-11-30T21:00:03.106Z,85.5
2023-11-30T21:03:03.437Z,85.5
2023-11-30T21:06:03.144Z,85.5
2023-11-30T21:09:03.014Z,85.7
2023-11-30T21:12:03.246Z,85.7
2023-11-30T21:15:03.243Z,85.7
2023-11-30T21:18:03.200Z,85.7
2023-11-30T21:21:03.152Z,85.7
2023-11-30T21:24:03.164Z,85.7
2023-11-30T21:27:03.257Z,85.7
2023-11-30T21:30:03.132Z,85.7
2023-11-30T21:33:03.253Z,85.7
2023-11-30T21:36:03.061Z,85.7
2023-11-30T21:39:03.413Z,85.7
2023-11-30T21:42:03.150Z,85.7
2023-11-30T21:45:03.285Z,85.7
2023-11-30T21:48:03.411Z,85.7
2023-11-30T21:51:03.103Z,87.1
2023-11-30T21:54:03.224Z,87.1
2023-11-30T21:57:03.242Z,87.1
2023-11-30T22:00:03.353Z,87.1
2023-11-30T22:03:03.420Z,87.1
2023-11-30T22:06:03.252Z,87.1
2023-11-30T22:09:03.130Z,87.1
2023-11-30T22:12:03.325Z,87.1
2023-11-30T22:15:03.167Z,87.1
2023-11-30T22:18:03.366Z,87.1
2023-11-30T22:21:03.149Z,87.1
2023-11-30T22:24:03.153Z,87.1
2023-11-30T22:27:03.168Z,87.1
2023-11-30T22:30:03.291Z,87.1
2023-11-30T22:33:03.389Z,87.1
2023-11-30T22:36:03.304Z,87.1
2023-11-30T22:39:03.336Z,88.3
2023-11-30T22:42:03.198Z,88.4
2023-11-30T22:45:03.115Z,88.4
2023-11-30T22:48:03.349Z,88.4
2023-11-30T22:51:03.433Z,88.4
2023-11-30T22:54:03.240Z,88.4
2023-11-30T22:57:03.512Z,88.4
2023-11-30T23:00:04.412Z,88.4
2023-11-30T23:03:03.811Z,88.4
2023-11-30T23:06:03.324Z,88.4
2023-11-30T23:09:03.118Z,88.4
2023-11-30T23:12:03.224Z,88.4
2023-11-30T23:15:03.170Z,88.4
2023-11-30T23:18:03.255Z,88.4
2023-11-30T23:21:03.537Z,88.4
2023-11-30T23:24:03.153Z,88.4
2023-11-30T23:27:03.101Z,88.4
2023-11-30T23:30:03.160Z,88.4
2023-11-30T23:33:03.152Z,88.4
2023-11-30T23:36:03.127Z,89.6
2023-11-30T23:39:03.226Z,89.6
2023-11-30T23:42:03.108Z,89.6
2023-11-30T23:45:03.089Z,89.6
2023-11-30T23:48:03.384Z,89.6
2023-11-30T23:51:03.206Z,89.6
2023-11-30T23:54:03.162Z,89.6
2023-11-30T23:57:03.159Z,89.6
